Querino, Arizona
Current Conditions -  °F | °C
As of 11:53 AM on Sunday 23 Nov 2014 (Local Time) from KGUP Reporting Station
Clear Clear  
Wind Chill: 29°   Ceiling: Unl
Heat Index: 39°   Visibility: 10mi
Dew Point:   Wind: 22mph
Humidity: 23%   Direction: 320°NW
Pressure: 30.01"   Gusts: 35mph
Location:  35.2918°N, 109.157°W
Report Text: KGUP 231853Z AUTO 32019G30KT 10SM CLR 04/M16 A3001 RMK AO2 PK WND 32033/1817 SLP135 T00391156
Loading
Personal Weather Stations






























Interactive Weather Map New forecast layout! Learn more

10-Day Weather Forecast

Advertisements
Track Severe Weather on mobile